createdAt,value
2019-02-24T00:02:27.444Z,-1.00
2019-02-24T00:05:31.727Z,-1.00
2019-02-24T00:08:36.029Z,-1.00
2019-02-24T00:11:40.310Z,-1.00
2019-02-24T00:14:44.627Z,-1.00
2019-02-24T00:17:48.944Z,-0.90
2019-02-24T00:20:53.247Z,-0.90
2019-02-24T00:23:57.516Z,-0.90
2019-02-24T00:27:01.878Z,-0.90
2019-02-24T00:30:06.459Z,-0.90
2019-02-24T00:33:10.747Z,-0.80
2019-02-24T00:36:15.020Z,-0.80
2019-02-24T00:39:19.400Z,-0.80
2019-02-24T00:42:23.685Z,-0.80
2019-02-24T00:45:28.061Z,-0.70
2019-02-24T00:48:39.949Z,-0.70
2019-02-24T00:51:44.263Z,-0.70
2019-02-24T00:54:48.634Z,-0.70
2019-02-24T00:57:53.018Z,-0.60
2019-02-24T01:00:57.356Z,-0.60
2019-02-24T01:04:01.591Z,-0.60
2019-02-24T01:07:05.940Z,-0.60
2019-02-24T01:10:10.629Z,-0.50
2019-02-24T01:13:14.894Z,-0.50
2019-02-24T01:16:19.553Z,-0.50
2019-02-24T01:19:23.832Z,-0.50
2019-02-24T01:22:28.066Z,-0.50
2019-02-24T01:25:32.422Z,-0.40
2019-02-24T01:28:36.707Z,-0.40
2019-02-24T01:31:40.999Z,-0.40
2019-02-24T01:34:45.369Z,-0.40
2019-02-24T01:37:49.640Z,-0.40
2019-02-24T01:40:53.963Z,-0.30
2019-02-24T01:43:58.249Z,-0.30
2019-02-24T01:47:02.567Z,-0.30
2019-02-24T01:50:08.807Z,-0.30
2019-02-24T01:53:13.052Z,-0.20
2019-02-24T01:56:17.789Z,-0.20
2019-02-24T01:59:22.095Z,-0.20
2019-02-24T02:02:26.436Z,-0.20
2019-02-24T02:05:30.901Z,-0.20
2019-02-24T02:08:35.161Z,-0.20
2019-02-24T02:11:39.464Z,-0.10
2019-02-24T02:14:43.802Z,-0.10
2019-02-24T02:17:48.171Z,-0.10
2019-02-24T02:20:52.447Z,-0.10
2019-02-24T02:23:56.802Z,-0.10
2019-02-24T02:27:01.182Z,0.00
2019-02-24T02:30:06.584Z,0.00
2019-02-24T02:33:10.783Z,0.00
2019-02-24T02:36:15.094Z,0.00
2019-02-24T02:39:19.356Z,0.00
2019-02-24T02:42:23.658Z,0.00
2019-02-24T02:45:28.012Z,0.00
2019-02-24T02:48:32.326Z,0.00
2019-02-24T02:51:36.661Z,0.00
2019-02-24T02:54:40.960Z,0.00
2019-02-24T02:57:45.165Z,0.00
2019-02-24T03:00:49.457Z,0.00
2019-02-24T03:03:53.708Z,0.00
2019-02-24T03:07:06.891Z,0.00
2019-02-24T03:10:11.219Z,0.00
2019-02-24T03:13:15.514Z,0.00
2019-02-24T03:16:24.656Z,0.00
2019-02-24T03:19:28.867Z,0.10
2019-02-24T03:22:33.152Z,0.10
2019-02-24T03:25:37.943Z,0.10
2019-02-24T03:28:42.168Z,0.10
2019-02-24T03:31:46.475Z,0.10
2019-02-24T03:34:50.731Z,0.10
2019-02-24T03:37:54.950Z,0.10
2019-02-24T03:40:59.286Z,0.20
2019-02-24T03:44:03.675Z,0.10
2019-02-24T03:47:07.924Z,0.20
2019-02-24T03:50:12.291Z,0.20
2019-02-24T03:53:16.553Z,0.20
2019-02-24T03:56:20.870Z,0.20
2019-02-24T03:59:25.097Z,0.20
2019-02-24T04:02:29.303Z,0.20
2019-02-24T04:05:33.561Z,0.20
2019-02-24T04:08:37.935Z,0.20
2019-02-24T04:11:42.219Z,0.20
2019-02-24T04:14:46.567Z,0.20
2019-02-24T04:17:50.895Z,0.20
2019-02-24T04:20:55.110Z,0.30
2019-02-24T04:23:59.450Z,0.30
2019-02-24T04:27:04.232Z,0.30
2019-02-24T04:30:08.779Z,0.30
2019-02-24T04:33:13.190Z,0.30
2019-02-24T04:36:17.534Z,0.30
2019-02-24T04:39:21.879Z,0.30
2019-02-24T04:42:26.212Z,0.30
2019-02-24T04:45:30.458Z,0.30
2019-02-24T04:48:34.798Z,0.30
2019-02-24T04:51:39.158Z,0.30
2019-02-24T04:54:43.341Z,0.40
2019-02-24T04:57:47.620Z,0.40
2019-02-24T05:00:52.010Z,0.40
2019-02-24T05:03:56.375Z,0.40
2019-02-24T05:07:00.701Z,0.40
2019-02-24T05:10:06.543Z,0.40
2019-02-24T05:13:10.889Z,0.40
2019-02-24T05:16:15.171Z,0.40
2019-02-24T05:19:19.348Z,0.50
2019-02-24T05:22:23.646Z,0.50
2019-02-24T05:25:27.940Z,0.40
2019-02-24T05:28:32.260Z,0.40
2019-02-24T05:31:36.651Z,0.40
2019-02-24T05:34:41.023Z,0.50
2019-02-24T05:37:45.343Z,0.50
2019-02-24T05:40:49.624Z,0.50
2019-02-24T05:43:53.834Z,0.50
2019-02-24T05:46:58.303Z,0.50
2019-02-24T05:50:02.648Z,0.50
2019-02-24T05:53:06.947Z,0.50
2019-02-24T05:56:11.297Z,0.50
2019-02-24T05:59:15.688Z,0.50
2019-02-24T06:02:20.103Z,0.50
2019-02-24T06:05:24.448Z,0.50
2019-02-24T06:08:28.718Z,0.50
2019-02-24T06:11:32.935Z,0.50
2019-02-24T06:14:37.221Z,0.50
2019-02-24T06:17:41.592Z,0.60
2019-02-24T06:20:45.864Z,0.60
2019-02-24T06:23:50.204Z,0.60
2019-02-24T06:26:54.400Z,0.60
2019-02-24T06:30:04.964Z,0.60
2019-02-24T06:33:05.200Z,0.60
2019-02-24T06:36:09.550Z,0.60
2019-02-24T06:39:13.854Z,0.70
2019-02-24T06:42:18.224Z,0.70
2019-02-24T06:45:22.624Z,0.70
2019-02-24T06:48:26.931Z,0.70
2019-02-24T06:51:31.268Z,0.70
2019-02-24T06:54:35.619Z,0.80
2019-02-24T06:57:39.867Z,0.80
2019-02-24T07:00:44.176Z,0.80
2019-02-24T07:03:48.503Z,0.80
2019-02-24T07:06:52.893Z,0.90
2019-02-24T07:09:57.239Z,0.90
2019-02-24T07:13:01.606Z,0.90
2019-02-24T07:16:05.857Z,1.00
2019-02-24T07:19:10.234Z,1.00
2019-02-24T07:22:14.567Z,1.00
2019-02-24T07:25:18.872Z,1.00
2019-02-24T07:28:23.271Z,1.00
2019-02-24T07:31:28.034Z,1.00
2019-02-24T07:34:32.429Z,1.10
2019-02-24T07:37:36.829Z,1.00
2019-02-24T07:40:41.186Z,1.10
2019-02-24T07:43:45.535Z,1.10
2019-02-24T07:46:51.524Z,1.10
2019-02-24T07:49:55.901Z,1.10
2019-02-24T07:53:00.296Z,1.10
2019-02-24T07:56:04.596Z,1.20
2019-02-24T07:59:09.043Z,1.20
2019-02-24T08:02:13.612Z,1.20
2019-02-24T08:05:17.885Z,1.20
2019-02-24T08:08:22.268Z,1.20
2019-02-24T08:11:26.619Z,1.30
2019-02-24T08:14:30.953Z,1.30
2019-02-24T08:17:35.279Z,1.30
2019-02-24T08:20:39.801Z,1.20
2019-02-24T08:23:44.153Z,1.30
2019-02-24T08:26:48.514Z,1.30
2019-02-24T08:29:52.865Z,1.30
2019-02-24T08:32:57.512Z,1.40
2019-02-24T08:36:01.853Z,1.40
2019-02-24T08:39:08.363Z,1.40
2019-02-24T08:42:12.679Z,1.40
2019-02-24T08:45:17.494Z,1.40
2019-02-24T08:48:21.868Z,1.40
2019-02-24T08:51:26.174Z,1.40
2019-02-24T08:54:30.491Z,1.50
2019-02-24T08:57:34.873Z,1.50
2019-02-24T09:00:39.235Z,1.50
2019-02-24T09:03:43.640Z,1.50
2019-02-24T09:06:48.147Z,1.60
2019-02-24T09:09:52.447Z,1.70
2019-02-24T09:12:56.792Z,1.70
2019-02-24T09:16:01.179Z,1.70
2019-02-24T09:19:05.684Z,1.70
2019-02-24T09:22:12.402Z,1.70
2019-02-24T09:25:16.662Z,1.70
2019-02-24T09:28:21.139Z,1.80
2019-02-24T09:31:25.495Z,1.80
2019-02-24T09:34:29.962Z,1.80
2019-02-24T09:37:34.483Z,1.80
2019-02-24T09:40:38.912Z,1.90
2019-02-24T09:43:43.294Z,1.90
2019-02-24T09:46:47.715Z,2.00
2019-02-24T09:49:52.224Z,2.00
2019-02-24T09:52:56.626Z,2.00
2019-02-24T09:56:00.922Z,2.00
2019-02-24T09:59:05.291Z,2.00
2019-02-24T10:02:09.594Z,2.00
2019-02-24T10:05:14.407Z,2.00
2019-02-24T10:08:18.830Z,2.10
2019-02-24T10:11:23.132Z,2.10
2019-02-24T10:14:27.472Z,2.10
2019-02-24T10:17:31.883Z,2.10
2019-02-24T10:20:36.158Z,2.20
2019-02-24T10:23:40.600Z,2.20
2019-02-24T10:26:45.001Z,2.20
2019-02-24T10:29:49.396Z,2.30
2019-02-24T10:32:53.684Z,2.20
2019-02-24T10:35:58.474Z,2.20
2019-02-24T10:39:04.999Z,2.20
2019-02-24T10:42:09.393Z,2.20
2019-02-24T10:45:14.123Z,2.30
2019-02-24T10:48:18.729Z,2.30
2019-02-24T10:51:23.000Z,2.30
2019-02-24T10:54:27.546Z,2.30
2019-02-24T10:57:31.921Z,2.30
2019-02-24T11:00:36.310Z,2.40
2019-02-24T11:03:40.691Z,2.40
2019-02-24T11:06:45.085Z,2.40
2019-02-24T11:09:49.539Z,2.40
2019-02-24T11:12:54.310Z,2.40
2019-02-24T11:15:58.661Z,2.50
2019-02-24T11:19:03.084Z,2.50
2019-02-24T11:22:07.464Z,2.60
2019-02-24T11:25:11.939Z,2.60
2019-02-24T11:28:16.324Z,2.70
2019-02-24T11:31:20.660Z,2.70
2019-02-24T11:34:26.195Z,2.80
2019-02-24T11:37:32.384Z,2.80
2019-02-24T11:40:36.999Z,2.90
2019-02-24T11:43:41.378Z,2.90
2019-02-24T11:46:45.719Z,3.10
2019-02-24T11:49:49.950Z,3.10
2019-02-24T11:52:54.228Z,3.20
2019-02-24T11:55:58.540Z,3.30
2019-02-24T11:59:02.909Z,3.30
2019-02-24T12:02:10.268Z,3.40
2019-02-24T12:05:14.759Z,3.40
2019-02-24T12:08:19.082Z,3.50
2019-02-24T12:11:23.751Z,3.50
2019-02-24T12:14:28.120Z,3.60
2019-02-24T12:17:32.414Z,3.60
2019-02-24T12:20:36.734Z,3.70
2019-02-24T12:23:41.180Z,3.80
2019-02-24T12:26:45.482Z,4.00
2019-02-24T12:29:49.683Z,4.20
2019-02-24T12:32:54.181Z,4.40
2019-02-24T12:35:58.433Z,4.50
2019-02-24T12:39:02.790Z,4.70
2019-02-24T12:42:09.346Z,4.80
2019-02-24T12:45:13.760Z,4.90
2019-02-24T12:48:18.152Z,5.00
2019-02-24T12:51:22.586Z,5.10
2019-02-24T12:54:27.029Z,5.20
2019-02-24T12:57:31.401Z,5.30
2019-02-24T13:00:35.745Z,5.40
2019-02-24T13:03:40.133Z,5.50
2019-02-24T13:06:44.500Z,5.60
2019-02-24T13:09:48.959Z,5.60
2019-02-24T13:12:53.347Z,5.60
2019-02-24T13:15:57.675Z,5.70
2019-02-24T13:19:02.053Z,5.70
2019-02-24T13:22:06.665Z,5.70
2019-02-24T13:25:11.316Z,5.70
2019-02-24T13:28:16.015Z,5.80
2019-02-24T13:31:20.308Z,5.70
2019-02-24T13:34:24.685Z,5.70
2019-02-24T13:37:30.777Z,5.70
2019-02-24T13:40:35.627Z,5.70
2019-02-24T13:43:39.917Z,5.70
2019-02-24T13:46:44.290Z,5.70
2019-02-24T13:49:49.764Z,5.70
2019-02-24T13:52:54.151Z,5.70
2019-02-24T13:55:58.488Z,5.70
2019-02-24T13:59:02.844Z,5.60
2019-02-24T14:02:07.227Z,5.60
2019-02-24T14:05:11.668Z,5.60
2019-02-24T14:08:16.087Z,5.50
2019-02-24T14:11:20.451Z,5.50
2019-02-24T14:14:24.899Z,5.50
2019-02-24T14:17:30.431Z,5.40
2019-02-24T14:20:35.274Z,5.40
2019-02-24T14:23:39.561Z,5.40
2019-02-24T14:26:43.934Z,5.30
2019-02-24T14:29:48.629Z,5.30
2019-02-24T14:32:53.096Z,5.20
2019-02-24T14:35:57.617Z,5.20
2019-02-24T14:39:02.106Z,5.20
2019-02-24T14:42:06.489Z,5.10
2019-02-24T14:45:14.105Z,5.10
2019-02-24T14:48:18.493Z,5.10
2019-02-24T14:51:22.936Z,5.00
2019-02-24T14:54:28.391Z,5.00
2019-02-24T14:57:32.868Z,5.00
2019-02-24T15:00:37.292Z,4.90
2019-02-24T15:03:41.701Z,4.90
2019-02-24T15:06:46.108Z,4.90
2019-02-24T15:09:53.484Z,4.90
2019-02-24T15:12:58.214Z,4.80
2019-02-24T15:16:03.943Z,4.80
2019-02-24T15:19:08.446Z,4.80
2019-02-24T15:22:12.993Z,4.80
2019-02-24T15:25:17.765Z,4.70
2019-02-24T15:28:22.292Z,4.70
2019-02-24T15:31:28.420Z,4.70
2019-02-24T15:34:32.818Z,4.60
2019-02-24T15:37:37.301Z,4.60
2019-02-24T15:40:43.037Z,4.60
2019-02-24T15:43:47.400Z,4.60
2019-02-24T15:46:51.770Z,4.50
2019-02-24T15:49:56.184Z,4.50
2019-02-24T15:53:00.553Z,4.50
2019-02-24T15:56:05.406Z,4.50
2019-02-24T15:59:09.824Z,4.40
2019-02-24T16:02:14.252Z,4.40
2019-02-24T16:05:18.752Z,4.40
2019-02-24T16:08:23.198Z,4.40
2019-02-24T16:11:27.767Z,4.30
2019-02-24T16:14:33.400Z,4.30
2019-02-24T16:17:38.100Z,4.20
2019-02-24T16:20:42.436Z,4.20
2019-02-24T16:23:46.909Z,4.20
2019-02-24T16:26:51.338Z,4.10
2019-02-24T16:29:55.885Z,4.10
2019-02-24T16:33:00.315Z,4.00
2019-02-24T16:36:04.683Z,4.00
2019-02-24T16:39:09.023Z,4.00
2019-02-24T16:42:13.425Z,3.90
2019-02-24T16:45:18.049Z,3.90
2019-02-24T16:48:22.468Z,3.90
2019-02-24T16:51:27.282Z,3.90
2019-02-24T16:54:31.656Z,3.90
2019-02-24T16:57:36.202Z,3.80
2019-02-24T17:00:40.871Z,3.80
2019-02-24T17:03:45.423Z,3.70
2019-02-24T17:06:49.818Z,3.70
2019-02-24T17:09:54.526Z,3.70
2019-02-24T17:12:59.076Z,3.60
2019-02-24T17:16:03.712Z,3.60
2019-02-24T17:19:10.903Z,3.50
2019-02-24T17:22:15.382Z,3.50
2019-02-24T17:25:19.765Z,3.40
2019-02-24T17:28:24.245Z,3.40
2019-02-24T17:31:28.762Z,3.30
2019-02-24T17:34:33.305Z,3.30
2019-02-24T17:37:37.956Z,3.20
2019-02-24T17:40:42.645Z,3.20
2019-02-24T17:43:47.003Z,3.20
2019-02-24T17:46:51.370Z,3.10
2019-02-24T17:49:55.668Z,3.10
2019-02-24T17:53:00.322Z,3.00
2019-02-24T17:56:04.772Z,3.00
2019-02-24T17:59:09.208Z,2.90
2019-02-24T18:02:13.665Z,2.90
2019-02-24T18:05:18.163Z,2.80
2019-02-24T18:08:28.241Z,2.80
2019-02-24T18:11:28.570Z,2.80
2019-02-24T18:14:32.985Z,2.70
2019-02-24T18:17:37.319Z,2.70
2019-02-24T18:20:42.487Z,2.60
2019-02-24T18:23:46.993Z,2.60
2019-02-24T18:26:51.335Z,2.50
2019-02-24T18:29:55.712Z,2.50
2019-02-24T18:33:00.175Z,2.50
2019-02-24T18:36:04.619Z,2.40
2019-02-24T18:39:08.986Z,2.40
2019-02-24T18:42:14.503Z,2.30
2019-02-24T18:45:18.879Z,2.30
2019-02-24T18:48:23.316Z,2.30
2019-02-24T18:51:27.826Z,2.30
2019-02-24T18:54:34.683Z,2.20
2019-02-24T18:57:38.511Z,2.20
2019-02-24T19:00:42.815Z,2.20
2019-02-24T19:03:47.199Z,2.20
2019-02-24T19:06:51.577Z,2.10
2019-02-24T19:09:55.933Z,2.10
2019-02-24T19:13:00.337Z,2.10
2019-02-24T19:16:04.688Z,2.00
2019-02-24T19:19:09.090Z,2.00
2019-02-24T19:22:13.476Z,1.90
2019-02-24T19:25:17.990Z,1.90
2019-02-24T19:28:22.365Z,1.80
2019-02-24T19:31:26.749Z,1.80
2019-02-24T19:34:31.162Z,1.80
2019-02-24T19:37:35.563Z,1.70
2019-02-24T19:40:39.942Z,1.60
2019-02-24T19:43:44.351Z,1.60
2019-02-24T19:46:48.710Z,1.40
2019-02-24T19:49:53.089Z,1.30
2019-02-24T19:52:57.408Z,1.20
2019-02-24T19:56:01.901Z,1.20
2019-02-24T19:59:08.060Z,1.10
2019-02-24T20:02:12.445Z,1.10
2019-02-24T20:05:16.861Z,1.00
2019-02-24T20:08:22.269Z,0.90
2019-02-24T20:11:26.625Z,0.90
2019-02-24T20:14:31.031Z,0.90
2019-02-24T20:17:35.420Z,0.70
2019-02-24T20:20:40.924Z,0.80
2019-02-24T20:23:45.289Z,0.70
2019-02-24T20:26:49.842Z,0.70
2019-02-24T20:29:56.446Z,0.80
2019-02-24T20:33:00.840Z,0.70
2019-02-24T20:36:05.306Z,0.70
2019-02-24T20:39:09.757Z,0.70
2019-02-24T20:42:14.128Z,0.70
2019-02-24T20:45:19.396Z,0.70
2019-02-24T20:48:23.798Z,0.70
2019-02-24T20:51:28.372Z,0.70
2019-02-24T20:54:32.749Z,0.70
2019-02-24T20:57:37.893Z,0.80
2019-02-24T21:00:43.838Z,0.70
2019-02-24T21:03:48.372Z,0.60
2019-02-24T21:06:52.782Z,0.70
2019-02-24T21:09:57.094Z,0.60
2019-02-24T21:13:01.776Z,0.50
2019-02-24T21:16:06.188Z,0.60
2019-02-24T21:19:10.551Z,0.70
2019-02-24T21:22:14.946Z,0.70
2019-02-24T21:25:19.240Z,0.70
2019-02-24T21:28:23.620Z,0.80
2019-02-24T21:31:28.172Z,0.80
2019-02-24T21:34:32.561Z,0.90
2019-02-24T21:37:36.815Z,0.90
2019-02-24T21:40:41.195Z,1.00
2019-02-24T21:43:45.464Z,1.00
2019-02-24T21:46:49.778Z,1.10
2019-02-24T21:49:54.230Z,1.10
2019-02-24T21:52:58.548Z,1.10
2019-02-24T21:56:02.905Z,1.10
2019-02-24T21:59:08.178Z,1.10
2019-02-24T22:02:12.531Z,1.10
2019-02-24T22:05:16.836Z,1.10
2019-02-24T22:08:21.168Z,1.10
2019-02-24T22:11:25.471Z,1.20
2019-02-24T22:14:29.738Z,1.20
2019-02-24T22:17:34.319Z,1.30
2019-02-24T22:20:38.651Z,1.30
2019-02-24T22:23:42.989Z,1.30
2019-02-24T22:26:47.274Z,1.40
2019-02-24T22:29:52.036Z,1.40
2019-02-24T22:32:56.259Z,1.40
2019-02-24T22:36:00.643Z,1.50
2019-02-24T22:39:06.864Z,1.50
2019-02-24T22:42:11.117Z,1.60
2019-02-24T22:45:17.317Z,1.60
2019-02-24T22:48:21.693Z,1.60
2019-02-24T22:51:25.897Z,1.60
2019-02-24T22:54:30.323Z,1.60
2019-02-24T22:57:34.674Z,1.60
2019-02-24T23:01:10.733Z,1.60
2019-02-24T23:04:15.062Z,1.70
2019-02-24T23:07:19.370Z,1.60
2019-02-24T23:10:23.788Z,1.50
2019-02-24T23:13:28.039Z,1.50
2019-02-24T23:16:32.418Z,1.50
2019-02-24T23:19:36.790Z,1.60
2019-02-24T23:22:41.055Z,1.50
2019-02-24T23:25:45.314Z,1.50
2019-02-24T23:28:49.516Z,1.60
2019-02-24T23:31:53.802Z,1.60
2019-02-24T23:34:58.151Z,1.70
2019-02-24T23:38:02.524Z,1.60
2019-02-24T23:41:06.783Z,1.70
2019-02-24T23:44:11.095Z,1.70
2019-02-24T23:47:15.434Z,1.80
2019-02-24T23:50:19.799Z,1.80
2019-02-24T23:53:24.127Z,1.80
2019-02-24T23:56:28.433Z,1.80
2019-02-24T23:59:32.710Z,1.80
